Time;durP1;ratioP1;P1;durP2;ratioP2;P2;SDS_P1;SDS_P2;PMS_P1;PMS_P2;Temp;Humidity;BMP_temperature;BMP_pressure;BME280_temperature;BME280_humidity;BME280_pressure;Samples;Min_cycle;Max_cycle;Signal;HPM_P1;HPM_P2
2021/06/23 00:00:18;;;;;;;15.50;6.65;;;14.30;99.90;;;;;;6183944;23;20084;-85
2021/06/23 00:02:46;;;;;;;9.98;5.88;;;14.30;99.90;;;;;;6155363;23;20067;-86
2021/06/23 00:05:14;;;;;;;13.05;5.78;;;14.10;99.90;;;;;;6154728;23;20067;-86
2021/06/23 00:07:41;;;;;;;11.77;6.18;;;14.20;99.90;;;;;;6156896;23;20059;-86
2021/06/23 00:10:09;;;;;;;17.10;6.18;;;14.20;99.90;;;;;;6157688;23;20067;-87
2021/06/23 00:12:36;;;;;;;15.10;5.78;;;14.20;99.90;;;;;;6181208;23;20443;-87
2021/06/23 00:15:04;;;;;;;14.48;5.50;;;14.20;99.90;;;;;;6155583;23;20052;-86
2021/06/23 00:17:41;;;;;;;17.15;6.60;;;14.10;99.90;;;;;;6158929;23;20017;-86
2021/06/23 00:20:14;;;;;;;12.45;6.22;;;14.10;99.90;;;;;;6157373;23;20096;-87
2021/06/23 00:22:41;;;;;;;;;;;14.10;99.90;;;;;;6157589;23;20091;-85
2021/06/23 00:25:09;;;;;;;12.90;5.85;;;14.00;99.90;;;;;;6176044;23;19964;-88
2021/06/23 00:27:36;;;;;;;12.93;5.82;;;14.00;99.90;;;;;;6151074;23;20068;-87
2021/06/23 00:30:04;;;;;;;8.70;5.45;;;14.00;99.90;;;;;;6151233;23;20029;-86
2021/06/23 00:32:33;;;;;;;19.05;6.53;;;14.00;99.90;;;;;;6152375;23;20017;-87
2021/06/23 00:35:00;;;;;;;15.52;6.38;;;14.00;99.90;;;;;;6153241;23;20021;-86
2021/06/23 00:37:28;;;;;;;14.15;6.13;;;14.00;99.90;;;;;;6151857;23;20056;-86
2021/06/23 00:39:55;;;;;;;13.65;5.93;;;14.00;99.90;;;;;;6151290;23;20014;-86
2021/06/23 00:42:22;;;;;;;12.40;6.20;;;13.90;99.90;;;;;;6152427;23;20057;-86
2021/06/23 00:44:49;;;;;;;11.57;5.78;;;14.00;99.90;;;;;;6149503;23;20076;-87
2021/06/23 00:47:16;;;;;;;14.20;5.80;;;13.90;99.90;;;;;;6150943;23;20084;-86
2021/06/23 00:49:43;;;;;;;14.30;6.15;;;14.00;99.90;;;;;;6153832;23;20069;-87
2021/06/23 00:52:10;;;;;;;12.55;5.88;;;14.00;99.90;;;;;;6152105;23;20052;-86
2021/06/23 00:54:47;;;;;;;11.10;5.93;;;14.10;99.90;;;;;;6150675;23;20025;-87
2021/06/23 00:57:15;;;;;;;11.68;5.80;;;14.00;99.90;;;;;;6152077;23;20026;-86
2021/06/23 00:59:42;;;;;;;13.20;5.65;;;14.00;99.90;;;;;;6152905;23;20025;-86
2021/06/23 01:02:10;;;;;;;13.10;5.72;;;14.10;99.90;;;;;;6151283;23;20092;-87
2021/06/23 01:04:37;;;;;;;11.68;5.45;;;14.10;99.90;;;;;;6148528;23;20053;-86
2021/06/23 01:07:05;;;;;;;13.05;5.80;;;14.20;99.90;;;;;;6151660;23;20013;-87
2021/06/23 01:09:32;;;;;;;13.23;5.57;;;14.20;99.90;;;;;;6151053;23;20448;-87
2021/06/23 01:12:16;;;;;;;11.55;5.55;;;14.10;99.90;;;;;;6152202;23;20021;-88
2021/06/23 01:14:43;;;;;;;14.35;5.60;;;14.00;99.90;;;;;;6161121;23;20065;-86
2021/06/23 01:17:12;;;;;;;11.50;5.13;;;14.10;99.90;;;;;;6147402;23;20516;-86
2021/06/23 01:19:43;;;;;;;10.43;5.15;;;13.90;99.90;;;;;;6150617;23;20189;-87
2021/06/23 01:22:13;;;;;;;12.65;4.80;;;14.00;99.90;;;;;;6150371;23;20084;-85
2021/06/23 01:24:41;;;;;;;8.18;4.13;;;14.10;99.90;;;;;;6148200;23;20021;-86
2021/06/23 01:27:09;;;;;;;15.82;4.70;;;14.20;99.90;;;;;;6151407;23;20017;-86
2021/06/23 01:29:36;;;;;;;13.55;4.47;;;14.20;99.90;;;;;;6150013;23;20018;-86
2021/06/23 01:32:05;;;;;;;10.85;4.18;;;14.20;99.90;;;;;;6125360;23;20451;-87
2021/06/23 01:34:32;;;;;;;10.07;3.97;;;13.80;99.90;;;;;;6151060;23;20017;-86
2021/06/23 01:36:59;;;;;;;10.95;4.13;;;14.20;99.90;;;;;;6126963;23;20017;-87
2021/06/23 01:39:27;;;;;;;11.52;4.32;;;14.10;99.90;;;;;;6123814;23;20474;-87
2021/06/23 01:41:54;;;;;;;12.38;4.40;;;14.10;99.90;;;;;;6127099;23;20357;-84
2021/06/23 01:44:21;;;;;;;10.95;4.35;;;14.00;99.90;;;;;;6125624;23;20087;-86
2021/06/23 01:46:47;;;;;;;14.68;4.53;;;14.10;99.90;;;;;;6124849;23;20025;-86
2021/06/23 01:49:19;;;;;;;11.80;4.25;;;14.10;99.90;;;;;;6126779;23;20018;-87
2021/06/23 01:51:46;;;;;;;10.52;4.10;;;14.30;99.90;;;;;;6125498;23;20022;-88
2021/06/23 01:54:13;;;;;;;10.80;4.40;;;14.30;99.90;;;;;;6151510;23;20026;-87
2021/06/23 01:56:41;;;;;;;10.25;4.10;;;14.30;99.90;;;;;;6127447;23;20079;-86
2021/06/23 01:59:08;;;;;;;10.18;4.13;;;14.30;99.90;;;;;;6149722;23;20068;-87
2021/06/23 02:01:45;;;;;;;11.13;4.35;;;14.40;99.90;;;;;;6149348;23;20328;-87
2021/06/23 02:04:23;;;;;;;10.43;4.13;;;14.40;99.90;;;;;;6126265;23;20072;-87
2021/06/23 02:07:28;;;;;;;9.38;4.05;;;14.40;99.90;;;;;;6152299;23;20526;-86
2021/06/23 02:10:17;;;;;;;10.43;3.78;;;14.30;99.90;;;;;;6135764;23;20072;-86
2021/06/23 02:13:20;;;;;;;8.63;4.15;;;14.40;99.90;;;;;;6125335;23;20088;-83
2021/06/23 02:15:49;;;;;;;12.25;4.25;;;14.30;99.90;;;;;;6125755;23;20024;-86
2021/06/23 02:18:15;;;;;;;11.02;4.15;;;14.20;99.90;;;;;;6136354;23;20089;-86
2021/06/23 02:20:43;;;;;;;10.63;3.67;;;14.20;99.90;;;;;;6151283;23;20084;-86
2021/06/23 02:23:10;;;;;;;11.40;4.38;;;14.30;99.90;;;;;;6126224;23;20053;-86
2021/06/23 02:25:38;;;;;;;9.40;3.75;;;14.30;99.90;;;;;;6155711;23;20081;-87
2021/06/23 02:28:06;;;;;;;13.45;3.97;;;14.30;99.90;;;;;;6155658;23;20017;-86
2021/06/23 02:30:35;;;;;;;11.45;4.03;;;14.20;99.90;;;;;;6181735;23;20459;-86
2021/06/23 02:33:05;;;;;;;9.68;3.75;;;14.20;99.90;;;;;;6155892;23;20511;-86
2021/06/23 02:35:32;;;;;;;10.20;3.93;;;14.20;99.90;;;;;;6156168;23;20063;-87
2021/06/23 02:37:59;;;;;;;12.40;3.97;;;14.00;99.90;;;;;;6154763;23;20025;-86
2021/06/23 02:40:27;;;;;;;10.15;3.22;;;14.00;99.90;;;;;;6155549;23;20017;-85
2021/06/23 02:42:55;;;;;;;10.50;3.53;;;14.10;99.90;;;;;;6154801;23;20020;-86
2021/06/23 02:45:25;;;;;;;11.60;3.10;;;14.10;99.90;;;;;;6155303;23;20028;-87
2021/06/23 02:47:52;;;;;;;10.05;2.78;;;14.00;99.90;;;;;;6155780;23;20013;-86
2021/06/23 02:50:19;;;;;;;11.43;3.45;;;13.90;99.90;;;;;;6181902;23;20067;-85
2021/06/23 02:52:47;;;;;;;10.02;3.22;;;14.10;99.90;;;;;;6154749;23;20017;-86
2021/06/23 02:55:19;;;;;;;7.47;3.30;;;14.10;99.90;;;;;;6155264;23;20028;-86
2021/06/23 02:57:48;;;;;;;5.95;2.75;;;13.90;99.90;;;;;;6156205;23;20013;-86
2021/06/23 03:00:16;;;;;;;12.68;3.20;;;14.00;99.90;;;;;;6156376;23;20071;-87
2021/06/23 03:02:44;;;;;;;14.02;3.83;;;14.10;99.90;;;;;;6157592;23;20111;-86
2021/06/23 03:05:11;;;;;;;10.75;3.60;;;14.10;99.90;;;;;;6156777;23;20031;-87
2021/06/23 03:07:41;;;;;;;15.13;3.63;;;14.20;99.90;;;;;;6183560;23;20013;-86
2021/06/23 03:10:11;;;;;;;10.65;3.78;;;14.30;99.90;;;;;;6157981;23;20446;-88
2021/06/23 03:12:39;;;;;;;9.10;3.50;;;14.20;99.90;;;;;;6182259;23;20335;-85
2021/06/23 03:15:07;;;;;;;12.25;3.90;;;14.30;99.90;;;;;;6156594;23;20021;-86
2021/06/23 03:17:34;;;;;;;7.68;3.85;;;14.30;99.90;;;;;;6166673;23;20021;-85
2021/06/23 03:20:05;;;;;;;14.45;3.83;;;14.40;99.90;;;;;;6155986;23;20021;-86
2021/06/23 03:22:32;;;;;;;12.65;3.63;;;14.40;99.90;;;;;;6184377;23;20451;-87
2021/06/23 03:24:59;;;;;;;10.07;3.88;;;14.40;99.90;;;;;;6179424;23;20020;-86
2021/06/23 03:27:26;;;;;;;10.38;3.88;;;14.50;99.90;;;;;;6157292;23;20025;-85
2021/06/23 03:29:52;;;;;;;8.73;3.53;;;14.50;99.90;;;;;;6181835;23;20191;-86
2021/06/23 03:32:19;;;;;;;9.43;3.10;;;14.50;99.90;;;;;;6181502;23;20029;-86
2021/06/23 03:34:46;;;;;;;7.13;2.95;;;14.40;99.90;;;;;;6152887;23;20429;-88
2021/06/23 03:37:15;;;;;;;11.10;3.40;;;14.20;99.90;;;;;;6154947;23;20087;-84
2021/06/23 03:39:43;;;;;;;15.47;3.90;;;14.20;99.90;;;;;;6192390;23;20013;-87
2021/06/23 03:42:10;;;;;;;12.35;3.35;;;14.20;99.90;;;;;;6156664;23;20617;-86
2021/06/23 03:44:37;;;;;;;11.73;3.35;;;14.10;99.90;;;;;;6155923;23;20017;-87
2021/06/23 03:47:08;;;;;;;9.40;3.22;;;14.20;99.90;;;;;;6156110;23;20362;-86
2021/06/23 03:49:35;;;;;;;11.05;3.10;;;14.20;99.90;;;;;;6155413;23;20028;-86
2021/06/23 03:52:03;;;;;;;13.20;3.30;;;14.40;99.90;;;;;;6180951;23;20036;-86
2021/06/23 03:54:31;;;;;;;13.05;3.80;;;14.30;99.90;;;;;;6154449;23;20021;-87
2021/06/23 03:56:58;;;;;;;12.40;3.65;;;15.10;99.90;;;;;;6156015;23;20017;-86
2021/06/23 03:59:25;;;;;;;11.80;4.00;;;14.40;99.90;;;;;;6182710;23;20017;-86
2021/06/23 04:01:52;;;;;;;16.42;3.90;;;14.40;99.90;;;;;;6179293;23;20021;-87
2021/06/23 04:04:18;;;;;;;14.75;4.13;;;14.40;99.90;;;;;;6154592;23;20021;-86
2021/06/23 04:06:45;;;;;;;9.77;4.13;;;14.30;99.90;;;;;;6156079;23;20083;-87
2021/06/23 04:09:12;;;;;;;13.65;4.30;;;14.30;99.90;;;;;;6154726;23;20114;-86
2021/06/23 04:11:40;;;;;;;10.55;4.03;;;14.30;99.90;;;;;;6154931;23;20025;-86
2021/06/23 04:14:07;;;;;;;11.38;3.83;;;14.30;99.90;;;;;;6182837;23;20398;-87
2021/06/23 04:16:34;;;;;;;11.48;4.35;;;14.30;99.90;;;;;;6156742;23;20013;-85
2021/06/23 04:19:00;;;;;;;9.63;3.40;;;14.20;99.90;;;;;;6156098;23;20083;-87
2021/06/23 04:21:27;;;;;;;14.70;3.97;;;14.30;99.90;;;;;;6156748;23;20402;-85
2021/06/23 04:23:54;;;;;;;9.88;3.65;;;14.30;99.90;;;;;;6150639;23;20248;-87
2021/06/23 04:26:21;;;;;;;13.60;4.20;;;14.10;99.90;;;;;;6152330;23;20013;-86
2021/06/23 04:28:49;;;;;;;15.73;4.32;;;14.20;99.90;;;;;;6150717;23;20444;-86
2021/06/23 04:31:16;;;;;;;14.55;3.65;;;14.20;99.90;;;;;;6151674;23;20017;-87
2021/06/23 04:33:43;;;;;;;9.85;3.58;;;14.20;99.90;;;;;;6152089;23;20056;-86
2021/06/23 04:36:10;;;;;;;10.88;3.45;;;14.10;99.90;;;;;;6162233;23;20250;-87
2021/06/23 04:38:37;;;;;;;13.05;3.90;;;14.00;99.90;;;;;;6152899;23;20068;-86
2021/06/23 04:41:04;;;;;;;11.15;3.70;;;13.80;99.90;;;;;;6152715;23;20024;-87
2021/06/23 04:43:31;;;;;;;9.55;3.72;;;13.80;99.90;;;;;;6152704;23;20080;-84
2021/06/23 04:45:59;;;;;;;9.68;4.15;;;13.80;99.90;;;;;;6152632;23;20451;-86
2021/06/23 04:48:26;;;;;;;8.80;3.30;;;13.80;99.90;;;;;;6151943;23;20443;-86
2021/06/23 04:50:53;;;;;;;10.63;3.33;;;13.90;99.90;;;;;;6153485;23;20083;-87
2021/06/23 04:53:20;;;;;;;19.15;3.67;;;14.00;99.90;;;;;;6152371;23;20068;-86
2021/06/23 04:55:47;;;;;;;10.85;3.50;;;14.10;99.90;;;;;;6153207;23;20018;-86
2021/06/23 04:58:14;;;;;;;10.18;3.17;;;14.00;99.90;;;;;;6151753;23;20021;-87
2021/06/23 05:00:40;;;;;;;10.68;3.28;;;14.20;99.90;;;;;;6152079;23;20021;-87
2021/06/23 05:03:09;;;;;;;12.52;3.55;;;14.20;99.90;;;;;;6151919;23;20021;-86
2021/06/23 05:05:35;;;;;;;10.10;3.35;;;14.10;99.90;;;;;;6152169;23;20017;-86
2021/06/23 05:08:03;;;;;;;10.85;3.33;;;14.10;99.90;;;;;;6151057;23;20040;-86
2021/06/23 05:10:29;;;;;;;14.38;3.63;;;14.00;99.90;;;;;;6150676;23;20052;-86
2021/06/23 05:12:56;;;;;;;8.95;2.95;;;14.00;99.90;;;;;;6150431;23;20072;-86
2021/06/23 05:15:23;;;;;;;8.50;3.00;;;14.00;99.90;;;;;;6160118;23;20096;-87
2021/06/23 05:17:51;;;;;;;10.75;2.92;;;14.10;99.90;;;;;;6154462;23;20076;-87
2021/06/23 05:20:20;;;;;;;12.10;3.15;;;14.10;99.90;;;;;;6152034;23;20440;-87
2021/06/23 05:22:48;;;;;;;10.45;2.85;;;14.10;99.90;;;;;;6163031;23;20064;-87
2021/06/23 05:25:18;;;;;;;7.00;2.15;;;14.30;99.90;;;;;;6153622;23;20088;-86
2021/06/23 05:27:45;;;;;;;12.02;2.45;;;14.20;99.90;;;;;;6153641;23;20017;-85
2021/06/23 05:30:13;;;;;;;12.57;2.58;;;14.10;99.90;;;;;;6125828;23;20021;-85
2021/06/23 05:32:39;;;;;;;7.47;2.25;;;14.00;99.90;;;;;;6152244;23;20025;-87
2021/06/23 05:35:07;;;;;;;10.73;2.97;;;14.00;99.90;;;;;;6128218;23;20021;-85
2021/06/23 05:37:35;;;;;;;9.85;2.50;;;13.90;99.90;;;;;;6128280;23;20013;-87
2021/06/23 05:40:03;;;;;;;12.55;2.78;;;14.10;99.90;;;;;;6127437;23;20339;-86
2021/06/23 05:42:29;;;;;;;7.57;2.85;;;14.30;99.90;;;;;;6152092;23;20017;-86
2021/06/23 05:44:56;;;;;;;10.50;2.65;;;14.60;99.90;;;;;;6128515;23;20033;-86
2021/06/23 05:47:23;;;;;;;7.82;2.35;;;14.70;99.90;;;;;;6162066;23;20084;-86
2021/06/23 05:49:50;;;;;;;11.13;2.45;;;14.80;99.90;;;;;;6163656;23;20017;-87
2021/06/23 05:52:17;;;;;;;15.43;2.88;;;14.90;99.90;;;;;;6138031;23;20017;-86
2021/06/23 05:54:45;;;;;;;5.47;2.22;;;14.90;99.90;;;;;;6127285;23;20021;-86
2021/06/23 05:57:12;;;;;;;6.18;2.30;;;15.00;99.90;;;;;;6128235;23;20068;-86
2021/06/23 05:59:39;;;;;;;9.38;2.47;;;15.10;99.90;;;;;;6151846;23;20474;-86
2021/06/23 06:02:05;;;;;;;10.23;2.40;;;15.00;99.90;;;;;;6127976;23;20530;-85
2021/06/23 06:04:32;;;;;;;8.98;2.50;;;15.00;99.90;;;;;;6151439;23;20029;-86
2021/06/23 06:06:59;;;;;;;10.45;2.53;;;15.00;99.90;;;;;;6154119;23;20443;-87
2021/06/23 06:09:26;;;;;;;6.05;2.30;;;14.90;99.90;;;;;;6126003;23;20017;-86
2021/06/23 06:11:54;;;;;;;8.02;2.28;;;14.80;99.90;;;;;;6128417;23;20040;-86
2021/06/23 06:14:21;;;;;;;13.82;2.95;;;14.80;99.90;;;;;;6151797;23;20022;-86
2021/06/23 06:16:48;;;;;;;11.93;2.53;;;14.90;99.90;;;;;;6126928;23;20076;-86
2021/06/23 06:19:15;;;;;;;11.30;2.78;;;15.00;99.90;;;;;;6150929;23;20018;-86
2021/06/23 06:21:41;;;;;;;9.10;2.60;;;15.30;99.90;;;;;;6127787;23;20336;-86
2021/06/23 06:24:08;;;;;;;11.35;2.50;;;15.40;99.90;;;;;;6127215;23;20096;-87
2021/06/23 06:26:35;;;;;;;8.75;2.72;;;16.60;99.90;;;;;;6127232;23;20021;-85
2021/06/23 06:29:04;;;;;;;11.93;2.90;;;15.90;99.90;;;;;;6126981;23;20087;-86
2021/06/23 06:31:30;;;;;;;8.52;2.42;;;15.60;99.90;;;;;;6153773;23;20021;-86
2021/06/23 06:33:57;;;;;;;7.57;2.60;;;15.70;99.90;;;;;;6156589;23;20033;-85
2021/06/23 06:36:25;;;;;;;8.65;2.53;;;15.80;99.90;;;;;;6129417;23;20506;-86
2021/06/23 06:38:51;;;;;;;11.45;2.65;;;16.00;99.90;;;;;;6130639;23;20013;-86
2021/06/23 06:41:18;;;;;;;6.72;2.17;;;15.90;99.90;;;;;;6131327;23;20076;-86
2021/06/23 06:43:45;;;;;;;6.85;2.75;;;15.90;99.90;;;;;;6130956;23;20013;-85
2021/06/23 06:46:13;;;;;;;10.20;2.30;;;15.70;99.90;;;;;;6129933;23;20021;-85
2021/06/23 06:48:40;;;;;;;9.38;2.28;;;15.90;99.90;;;;;;6128755;23;20028;-87
2021/06/23 06:51:07;;;;;;;9.60;2.53;;;16.20;99.90;;;;;;6156606;23;20366;-86
2021/06/23 06:53:34;;;;;;;11.48;2.20;;;16.30;99.90;;;;;;6130157;23;20072;-86
2021/06/23 06:56:01;;;;;;;6.47;1.80;;;16.30;99.90;;;;;;6156472;23;20017;-86
2021/06/23 06:58:27;;;;;;;9.77;1.95;;;16.30;99.90;;;;;;6155295;23;20024;-86
2021/06/23 07:00:54;;;;;;;8.30;2.00;;;16.20;99.90;;;;;;6140169;23;20088;-87
2021/06/23 07:03:22;;;;;;;9.52;2.30;;;16.20;99.90;;;;;;6131096;23;20025;-86
2021/06/23 07:05:49;;;;;;;13.45;1.95;;;16.40;99.90;;;;;;6155516;23;20379;-85
2021/06/23 07:08:16;;;;;;;8.25;1.67;;;16.30;99.90;;;;;;6130030;23;20021;-85
2021/06/23 07:10:43;;;;;;;10.75;1.90;;;16.20;99.90;;;;;;6156843;23;20084;-87
2021/06/23 07:13:10;;;;;;;9.32;1.90;;;16.30;99.90;;;;;;6129514;23;20443;-87
2021/06/23 07:15:37;;;;;;;6.28;2.00;;;16.20;99.90;;;;;;6166089;23;20079;-86
2021/06/23 07:18:04;;;;;;;6.35;1.80;;;16.20;99.90;;;;;;6140596;23;20021;-86
2021/06/23 07:20:32;;;;;;;8.73;1.88;;;16.40;99.90;;;;;;6130711;23;20021;-86
2021/06/23 07:23:00;;;;;;;7.78;1.88;;;16.60;99.90;;;;;;6155674;23;20013;-87
2021/06/23 07:25:27;;;;;;;10.10;2.20;;;16.70;99.90;;;;;;6159649;23;20020;-86
2021/06/23 07:28:00;;;;;;;7.35;2.00;;;16.30;99.90;;;;;;6171306;23;20450;-87
2021/06/23 07:30:27;;;;;;;6.72;1.77;;;16.20;99.90;;;;;;6159246;23;20095;-86
2021/06/23 07:33:01;;;;;;;11.15;2.22;;;16.20;99.90;;;;;;6159139;23;20020;-85
2021/06/23 07:38:15;;;;;;;9.38;2.15;;;16.10;99.90;;;;;;6184418;23;20075;-86
2021/06/23 07:43:09;;;;;;;7.35;1.98;;;16.50;99.90;;;;;;6186133;23;20024;-86
2021/06/23 07:45:37;;;;;;;6.95;2.20;;;16.60;99.90;;;;;;6158003;23;20040;-86
2021/06/23 07:48:20;;;;;;;7.63;2.20;;;16.60;99.90;;;;;;6161167;23;20017;-86
2021/06/23 07:50:52;;;;;;;4.93;1.73;;;16.60;99.90;;;;;;6157378;23;20048;-86
2021/06/23 07:53:35;;;;;;;8.93;2.28;;;16.70;99.90;;;;;;6183244;23;20025;-86
2021/06/23 08:10:06;;;;;;;9.35;2.15;;;16.70;99.90;;;;;;6184160;23;20009;-86
2021/06/23 08:12:50;;;;;;;8.57;2.65;;;16.80;99.90;;;;;;6183133;23;20017;-86
2021/06/23 08:15:17;;;;;;;11.02;2.58;;;16.80;99.90;;;;;;6158373;23;20028;-86
2021/06/23 08:17:44;;;;;;;9.35;2.28;;;16.90;99.90;;;;;;6157314;23;20024;-87
2021/06/23 08:20:12;;;;;;;6.88;2.60;;;17.30;99.90;;;;;;6158148;23;20020;-86
2021/06/23 08:22:39;;;;;;;6.60;2.17;;;17.20;99.90;;;;;;6158648;23;20032;-87
2021/06/23 08:25:08;;;;;;;10.30;2.60;;;17.40;99.90;;;;;;6153213;23;20022;-85
2021/06/23 08:27:37;;;;;;;11.00;2.72;;;17.20;99.90;;;;;;6154588;23;20346;-87
2021/06/23 08:30:06;;;;;;;7.43;2.47;;;17.30;99.90;;;;;;6152972;23;20014;-85
2021/06/23 08:32:32;;;;;;;8.32;2.35;;;17.60;99.90;;;;;;6152035;23;20028;-86
2021/06/23 08:34:59;;;;;;;14.27;3.20;;;17.90;99.90;;;;;;6155101;23;20060;-88
2021/06/23 08:37:26;;;;;;;8.52;2.50;;;18.10;99.90;;;;;;6154154;23;20025;-86
2021/06/23 08:39:53;;;;;;;7.68;2.38;;;18.20;99.90;;;;;;6153024;23;20014;-87
2021/06/23 08:42:22;;;;;;;8.05;2.20;;;18.20;99.90;;;;;;6162280;23;20018;-86
2021/06/23 08:44:49;;;;;;;9.70;2.50;;;18.20;99.90;;;;;;6153373;23;20051;-87
2021/06/23 08:47:15;;;;;;;11.68;2.40;;;18.30;99.40;;;;;;6154346;23;20017;-83
2021/06/23 08:49:43;;;;;;;10.52;3.30;;;18.50;99.50;;;;;;6152030;23;20017;-87
2021/06/23 08:52:10;;;;;;;9.27;2.67;;;18.10;99.90;;;;;;6152417;23;20014;-86
2021/06/23 08:54:39;;;;;;;7.80;2.50;;;18.50;99.90;;;;;;6152992;23;20021;-86
2021/06/23 08:57:07;;;;;;;7.88;2.70;;;18.40;99.90;;;;;;6153235;23;20332;-86
2021/06/23 08:59:39;;;;;;;9.30;2.75;;;18.60;99.60;;;;;;6152029;23;20076;-86
2021/06/23 09:02:07;;;;;;;8.80;2.63;;;18.40;99.80;;;;;;6152893;23;20018;-85
2021/06/23 09:04:34;;;;;;;7.95;2.50;;;18.30;99.30;;;;;;6152534;23;20080;-86
2021/06/23 09:07:01;;;;;;;10.68;2.55;;;18.10;99.90;;;;;;6153147;23;20018;-86
2021/06/23 09:09:34;;;;;;;9.30;3.00;;;18.20;99.90;;;;;;6153152;23;20032;-86
2021/06/23 09:12:03;;;;;;;11.73;2.92;;;18.60;99.90;;;;;;6161989;23;20018;-86
2021/06/23 09:14:31;;;;;;;8.68;2.67;;;18.50;99.90;;;;;;6152989;23;20348;-86
2021/06/23 09:17:06;;;;;;;11.65;3.15;;;18.30;99.90;;;;;;6176626;23;20079;-86
2021/06/23 09:19:49;;;;;;;7.63;2.65;;;18.50;99.30;;;;;;6152845;23;20108;-86
2021/06/23 09:22:32;;;;;;;9.07;2.80;;;18.60;99.60;;;;;;6152943;23;20021;-86
2021/06/23 09:24:59;;;;;;;9.32;3.10;;;18.80;99.90;;;;;;6150698;23;20703;-85
2021/06/23 09:27:29;;;;;;;10.80;3.35;;;18.90;99.90;;;;;;6111142;23;20029;-85
2021/06/23 09:30:22;;;;;;;9.05;3.30;;;18.60;99.10;;;;;;6124900;23;20014;-86
2021/06/23 09:33:05;;;;;;;7.53;3.53;;;18.30;99.80;;;;;;6150785;23;20022;-86
2021/06/23 09:35:32;;;;;;;7.03;3.35;;;18.10;99.90;;;;;;6126321;23;20511;-85
2021/06/23 09:37:59;;;;;;;12.43;3.45;;;18.20;99.90;;;;;;6125318;23;20064;-86
2021/06/23 09:40:29;;;;;;;8.75;3.45;;;18.30;99.90;;;;;;6149841;23;20018;-85
2021/06/23 09:43:00;;;;;;;12.95;3.83;;;18.30;99.90;;;;;;6125025;23;20410;-86
2021/06/23 09:45:29;;;;;;;12.43;3.10;;;18.30;99.90;;;;;;6149949;23;20017;-87
2021/06/23 09:48:02;;;;;;;8.20;3.70;;;18.30;99.90;;;;;;6125338;23;20068;-86
2021/06/23 09:50:31;;;;;;;10.30;3.53;;;18.40;99.90;;;;;;6160651;23;20060;-85
2021/06/23 09:53:02;;;;;;;7.43;3.60;;;18.40;99.90;;;;;;6126028;23;20017;-84
2021/06/23 09:55:37;;;;;;;9.80;3.58;;;18.40;99.90;;;;;;6124297;23;20021;-84
2021/06/23 09:58:10;;;;;;;10.15;3.42;;;18.30;99.90;;;;;;6124885;23;20028;-84
2021/06/23 10:00:59;;;;;;;11.10;3.42;;;18.50;99.90;;;;;;6149926;23;20483;-86
2021/06/23 10:03:29;;;;;;;14.80;3.45;;;18.80;99.90;;;;;;6148718;23;20028;-87
2021/06/23 10:05:56;;;;;;;7.88;3.38;;;18.70;99.90;;;;;;6123961;23;20459;-85
2021/06/23 10:08:24;;;;;;;8.13;3.65;;;18.70;99.90;;;;;;6123477;23;20022;-86
2021/06/23 10:10:52;;;;;;;9.20;3.50;;;18.90;99.80;;;;;;6124976;23;20068;-87
2021/06/23 10:13:19;;;;;;;9.55;3.72;;;19.30;99.90;;;;;;6125029;23;20021;-86
2021/06/23 10:15:47;;;;;;;8.55;3.38;;;18.70;99.90;;;;;;6124586;23;20463;-86
2021/06/23 10:18:15;;;;;;;7.97;3.88;;;18.70;99.90;;;;;;6147507;23;20022;-86
2021/06/23 10:20:45;;;;;;;9.90;4.25;;;18.50;99.90;;;;;;6098409;23;20010;-86
2021/06/23 10:23:12;;;;;;;;;;;18.60;99.60;;;;;;6126451;23;20064;-86
2021/06/23 10:25:40;;;;;;;9.68;3.45;;;18.50;99.90;;;;;;6179616;23;20401;-85
2021/06/23 10:28:09;;;;;;;14.98;4.32;;;18.70;99.90;;;;;;6178727;23;20013;-85
2021/06/23 10:30:36;;;;;;;13.57;4.65;;;19.10;99.40;;;;;;6154620;23;20323;-87
2021/06/23 10:33:03;;;;;;;9.38;4.00;;;19.20;99.90;;;;;;6151465;23;20052;-86
2021/06/23 10:35:30;;;;;;;7.20;3.67;;;19.20;99.50;;;;;;6179205;23;20017;-86
2021/06/23 10:38:00;;;;;;;8.45;3.78;;;19.40;99.10;;;;;;6151071;23;20075;-84
2021/06/23 10:40:28;;;;;;;11.73;4.00;;;19.50;99.50;;;;;;6154298;23;20017;-85
2021/06/23 10:43:11;;;;;;;8.93;4.45;;;19.40;99.80;;;;;;6153683;23;20406;-87
2021/06/23 10:45:42;;;;;;;8.73;4.20;;;19.50;99.90;;;;;;6154705;23;20572;-87
2021/06/23 10:48:11;;;;;;;10.18;4.30;;;19.50;99.90;;;;;;6153829;23;20017;-86
2021/06/23 10:50:38;;;;;;;7.63;3.78;;;19.70;99.60;;;;;;6154928;23;20030;-86
2021/06/23 10:53:28;;;;;;;9.70;3.90;;;20.20;99.90;;;;;;6180499;23;20063;-87
2021/06/23 10:55:56;;;;;;;10.27;3.78;;;20.40;98.30;;;;;;6179743;23;20071;-87
2021/06/23 10:58:26;;;;;;;10.05;3.83;;;20.80;98.60;;;;;;6180931;23;20017;-87
2021/06/23 11:01:06;;;;;;;9.15;3.67;;;21.00;97.80;;;;;;6180593;23;20025;-85
2021/06/23 11:03:52;;;;;;;;;;;20.80;98.60;;;;;;6154533;23;20435;-86
2021/06/23 11:06:38;;;;;;;9.68;3.63;;;20.60;98.30;;;;;;6177444;23;19943;-86
2021/06/23 11:09:22;;;;;;;10.93;4.13;;;20.60;98.40;;;;;;6179213;23;20017;-85
2021/06/23 11:11:49;;;;;;;9.63;4.07;;;20.40;98.60;;;;;;6180613;23;20048;-86
2021/06/23 11:14:18;;;;;;;9.27;3.47;;;20.60;98.00;;;;;;6149961;23;20025;-85
2021/06/23 11:16:44;;;;;;;9.48;4.20;;;20.80;97.90;;;;;;6175100;23;20025;-85
2021/06/23 11:19:12;;;;;;;9.05;4.25;;;20.70;97.00;;;;;;6155484;23;20013;-85
2021/06/23 11:21:40;;;;;;;12.50;4.32;;;20.50;98.70;;;;;;6183651;23;20017;-87
2021/06/23 11:24:13;;;;;;;9.40;3.70;;;20.90;98.00;;;;;;6151598;23;20172;-87
2021/06/23 11:26:52;;;;;;;9.85;4.03;;;21.30;97.80;;;;;;6158716;23;20021;-87
2021/06/23 11:29:27;;;;;;;;;;;21.30;99.00;;;;;;6161871;23;20084;-87
2021/06/23 11:31:59;;;;;;;12.55;4.57;;;21.80;96.80;;;;;;6175546;23;19975;-87
2021/06/23 11:34:53;;;;;;;15.25;4.30;;;21.30;97.00;;;;;;6141648;23;20462;-86
2021/06/23 11:37:23;;;;;;;11.20;4.07;;;21.10;97.50;;;;;;6148828;23;20092;-87
2021/06/23 11:39:51;;;;;;;15.30;4.60;;;21.40;97.00;;;;;;6151289;23;20333;-87
2021/06/23 11:42:19;;;;;;;9.95;4.53;;;21.40;96.70;;;;;;6151393;23;20024;-86
2021/06/23 11:44:46;;;;;;;8.55;4.10;;;21.20;97.40;;;;;;6157009;23;20021;-86
2021/06/23 11:47:13;;;;;;;9.50;4.40;;;21.50;97.80;;;;;;6150901;23;20021;-87
2021/06/23 11:49:40;;;;;;;12.30;4.80;;;21.50;97.30;;;;;;6149713;23;20068;-87
2021/06/23 11:52:08;;;;;;;10.73;4.40;;;21.90;97.80;;;;;;6149456;23;20021;-87
2021/06/23 11:54:37;;;;;;;12.63;4.20;;;21.90;97.10;;;;;;6150326;23;20017;-88
2021/06/23 11:57:05;;;;;;;10.98;4.43;;;22.20;97.30;;;;;;6149925;23;20026;-86
2021/06/23 11:59:36;;;;;;;9.27;3.50;;;22.20;96.60;;;;;;6150006;23;20293;-86
2021/06/23 12:02:03;;;;;;;12.93;3.85;;;22.20;96.50;;;;;;6151941;23;20364;-87
2021/06/23 12:04:33;;;;;;;11.57;4.28;;;22.10;96.20;;;;;;6147242;23;20018;-87
2021/06/23 12:06:59;;;;;;;12.40;4.55;;;21.90;96.80;;;;;;6146846;23;20049;-87
2021/06/23 12:09:27;;;;;;;13.00;4.22;;;21.30;96.30;;;;;;6149834;23;20510;-87
2021/06/23 12:11:53;;;;;;;10.20;4.45;;;20.90;97.60;;;;;;6150573;23;20451;-87
2021/06/23 12:14:20;;;;;;;10.82;4.47;;;20.80;97.90;;;;;;6150579;23;20017;-87
2021/06/23 12:16:49;;;;;;;15.40;3.92;;;21.40;97.50;;;;;;6150541;23;20021;-86
2021/06/23 12:19:15;;;;;;;8.05;4.30;;;21.60;97.50;;;;;;6162626;23;20017;-88
2021/06/23 12:21:42;;;;;;;12.55;3.88;;;21.70;97.10;;;;;;6150015;23;20076;-87
2021/06/23 12:24:09;;;;;;;10.68;4.03;;;21.70;97.20;;;;;;6160582;23;20451;-87
2021/06/23 12:26:36;;;;;;;10.80;3.90;;;22.00;96.30;;;;;;6126028;23;20017;-87
2021/06/23 12:29:03;;;;;;;10.07;4.35;;;22.00;96.10;;;;;;6150056;23;20018;-87
2021/06/23 12:31:30;;;;;;;9.73;4.60;;;21.40;97.10;;;;;;6147569;23;20021;-87
2021/06/23 12:33:59;;;;;;;10.52;4.40;;;21.30;96.40;;;;;;6152487;23;20017;-87
2021/06/23 12:36:29;;;;;;;12.57;4.55;;;21.40;97.50;;;;;;6129103;23;20028;-86
2021/06/23 12:38:56;;;;;;;10.48;4.35;;;21.50;97.00;;;;;;6126382;23;20022;-87
2021/06/23 12:41:23;;;;;;;12.07;4.85;;;21.40;97.30;;;;;;6127594;23;20013;-86
2021/06/23 12:43:50;;;;;;;7.68;4.00;;;21.60;96.20;;;;;;6128366;23;20411;-87
2021/06/23 12:46:17;;;;;;;11.85;4.28;;;22.00;97.70;;;;;;6126162;23;20021;-87
2021/06/23 12:48:44;;;;;;;10.93;4.25;;;22.40;97.00;;;;;;6125323;23;20363;-86
2021/06/23 12:51:12;;;;;;;9.23;4.13;;;22.40;96.30;;;;;;6125581;23;20021;-87
2021/06/23 12:53:39;;;;;;;7.78;3.92;;;22.10;96.50;;;;;;6126770;23;20017;-86
2021/06/23 12:56:06;;;;;;;7.63;4.15;;;21.70;95.80;;;;;;6151651;23;20018;-87
2021/06/23 12:58:33;;;;;;;7.15;4.28;;;21.40;96.20;;;;;;6152076;23;20088;-86
2021/06/23 13:01:00;;;;;;;9.55;3.50;;;21.40;96.10;;;;;;6124953;23;20020;-87
2021/06/23 13:03:27;;;;;;;11.73;5.07;;;21.30;97.50;;;;;;6126516;23;20022;-87
2021/06/23 13:05:58;;;;;;;13.98;5.00;;;21.00;97.40;;;;;;6125769;23;20025;-87
2021/06/23 13:08:26;;;;;;;9.75;4.50;;;20.90;97.00;;;;;;6120664;23;20020;-87
2021/06/23 13:10:53;;;;;;;7.45;4.10;;;21.10;97.20;;;;;;6147991;23;20033;-86